Latest Coastal Weather Observations for Coolangatta (QLD)

IDN60701

Issued at 6:55 am EST Saturday 19 April 2014 (issued every 10 minutes, with the page automatically refreshed every 10 minutes)

About coastal observations | Map of coastal stations | Coastal observations for NSW | Marine services | Other Formats
Station Details ID: 040717 Name: COOLANGATTA Lat: -28.17 Lon: 153.51 Height: 4.0 m
Data from the previous 72 hours. | See also: Recent months at Coolangatta (QLD)
Date/Time
EST
Temp

°C
Wind Pressure Rain
since 9am
mm
Weather Cloud Vis
km
Sea
Height
m
Swell
Dir
 
Speed
knots
Gust
knots
hPa Trend Height
m
Period
s
Dir
19/06:48am 15.6 WSW 3 4 1016.1 - 0.0 - - 10 - - - -
19/06:30am 15.1 CALM 0 0 1015.9 - 0.0 - - 2 - - - -
19/06:27am 14.9 CALM 0 0 1015.9 - 0.0 - - 5 - - - -
19/06:01am 15.3 SW 2 4 1015.8 - 0.0 - - 10 - - - -
19/06:00am 15.3 WSW 2 4 1015.7 - 0.0 - - 10 - - - -
19/05:51am 14.5 WSW 4 6 1015.8 - 0.0 - - 6 - - - -
19/05:30am 15.8 SW 3 4 1015.5 - 0.0 - - 7 - - - -
19/05:24am 16.1 SW 1 4 1015.5 - 0.0 - - 8 - - - -
19/05:00am 15.6 SW 3 5 1015.5 - 0.0 - - 0.8 - - - -
19/04:30am 15.7 SW 3 4 1015.3 - 0.0 - - 1 - - - -
19/04:03am 15.5 WSW 3 4 1015.1 - 0.0 - - 5 - - - -
19/04:00am 16.1 WSW 2 4 1015.1 - 0.0 - - 10 - - - -
19/03:30am 16.3 WSW 4 5 1015.1 - 0.0 - - 10 - - - -
19/03:00am 16.3 WSW 4 5 1015.1 - 0.0 - - 10 - - - -
19/02:30am 17.0 SW 5 6 1015.4 - 0.0 - - 10 - - - -
19/02:00am 16.4 WSW 4 5 1015.5 - 0.0 - - 10 - - - -
19/01:30am 17.1 SW 2 3 1015.6 - 0.0 - - 10 - - - -
19/01:00am 18.1 W 6 8 1015.7 - 0.0 - - 10 - - - -
19/12:30am 17.2 W 6 7 1015.8 - 0.0 - - 10 - - - -
19/12:00am 16.7 W 6 7 1015.8 - 0.0 - - 10 - - - -
 
Date/Time
EST
Temp

°C
Wind Pressure Rain
since 9am
mm
Weather Cloud Vis
km
Sea
Height
m
Swell
Dir
 
Speed
knots
Gust
knots
hPa Trend Height
m
Period
s
Dir
18/11:30pm 17.0 WSW 5 6 1016.1 - 0.0 - - 10 - - - -
18/11:00pm 17.3 W 5 6 1016.2 - 0.0 - Partly cloudy 10 - - - -
18/10:30pm 17.1 WSW 4 5 1016.3 - 0.0 - Partly cloudy 10 - - - -
18/10:00pm 17.7 WSW 3 5 1016.5 - 0.0 - Partly cloudy 10 - - - -
18/09:30pm 18.0 WSW 4 5 1016.5 - 0.0 - Partly cloudy 10 - - - -
18/09:00pm 17.9 WSW 4 5 1016.3 - 0.0 - Partly cloudy 10 - - - -
18/08:30pm 18.3 WSW 3 5 1016.2 - 0.0 - Partly cloudy 10 - - - -
18/08:00pm 18.3 WSW 5 6 1016.0 - 0.0 - Partly cloudy 10 - - - -
18/07:30pm 18.3 WSW 4 6 1015.6 - 0.0 - Partly cloudy 10 - - - -
18/07:00pm 18.5 W 5 6 1015.3 - 0.0 - - 10 - - - -
18/06:30pm 19.3 NNW 3 5 1015.0 - 0.0 - Partly cloudy 10 - - - -
18/06:00pm 21.1 N 5 7 1014.7 - 0.0 - - 10 - - - -
18/05:30pm 22.1 NNE 6 7 1014.6 - 0.0 - - 10 - - - -
18/05:00pm 22.9 NE 7 8 1014.4 - 0.0 - - 10 - - - -
18/04:30pm 23.4 ENE 7 9 1014.1 - 0.0 - - 10 - - - -
18/04:00pm 23.8 ENE 7 9 1013.9 - 0.0 - - 10 - - - -
18/03:30pm 24.1 NE 8 10 1013.8 - 0.0 - - 10 - - - -
18/03:00pm 24.2 ENE 9 12 1013.5 - 0.0 - - 10 - - - -
18/02:30pm 24.3 ENE 8 11 1013.8 - 0.0 - - 10 - - - -
18/02:00pm 24.3 ENE 9 11 1014.0 - 0.0 - - 10 - - - -
18/01:30pm 24.5 ENE 9 12 1014.2 - 0.0 - Partly cloudy 10 - - - -
18/01:00pm 24.6 ENE 10 13 1014.3 - 0.0 - Partly cloudy 10 - - - -
18/12:30pm 24.7 E 8 11 1014.7 - 0.0 - Partly cloudy 10 - - - -
18/12:00pm 24.0 E 9 13 1015.1 - 0.0 - Mostly clear 10 - - - -
18/11:30am 25.1 SSE 5 12 1015.6 - 0.0 - - 10 - - - -
18/11:00am 24.6 ENE 6 8 1016.2 - 0.0 - - 10 - - - -
18/10:30am 23.9 S 6 8 1016.7 - 0.0 - - 10 - - - -
18/10:00am 23.6 S 7 9 1016.9 - 0.0 - - 10 - - - -
18/09:30am 23.6 S 7 10 1017.2 - 0.0 - - 10 - - - -
18/09:00am 22.9 S 8 11 1017.2 - 0.0 - - 10 - - - -
18/08:30am 22.0 SSW 7 11 1017.5 - 0.0 - Partly cloudy 10 - - - -
18/08:00am 21.5 SSW 5 7 1017.5 - 0.0 - - 10 - - - -
18/07:30am 20.4 SSW 3 5 1017.4 - 0.0 - - 10 - - - -
18/07:00am 19.5 S 4 6 1017.2 - 0.0 - - 10 - - - -
18/06:30am 18.1 SSW 5 7 1016.9 - 0.0 - - 10 - - - -
18/06:00am 17.9 SW 5 7 1016.5 - 0.0 - - 10 - - - -
18/05:30am 18.3 SW 6 8 1016.4 - 0.0 - - 10 - - - -
18/05:00am 18.2 SW 7 11 1016.5 - 0.0 - - 10 - - - -
18/04:30am 16.9 SSW 5 6 1016.5 - 0.0 - - 10 - - - -
18/04:00am 16.8 S 5 7 1016.5 - 0.0 - - 10 - - - -
18/03:30am 17.6 S 6 8 1016.5 - 0.0 - Partly cloudy 10 - - - -
18/03:00am 17.6 S 5 7 1016.4 - 0.0 - - 10 - - - -
18/02:30am 18.6 SSW 6 9 1016.5 - 0.0 - - 10 - - - -
18/02:00am 18.5 S 5 7 1016.8 - 0.0 - Partly cloudy 10 - - - -
18/01:30am 18.6 S 5 7 1016.9 - 0.0 - - 10 - - - -
18/01:00am 19.8 SSW 6 9 1017.0 - 0.0 - Partly cloudy 10 - - - -
18/12:30am 20.0 SSW 6 8 1017.2 - 0.0 - Partly cloudy 10 - - - -
18/12:00am 20.5 SW 6 8 1017.5 - 0.0 - Mostly cloudy 10 - - - -
 
Date/Time
EST
Temp

°C
Wind Pressure Rain
since 9am
mm
Weather Cloud Vis
km
Sea
Height
m
Swell
Dir
 
Speed
knots
Gust
knots
hPa Trend Height
m
Period
s
Dir
17/11:30pm 20.2 SW 5 7 1017.6 - 0.0 - Partly cloudy 10 - - - -
17/11:00pm 20.3 WSW 5 7 1017.7 - 0.0 - Partly cloudy 10 - - - -
17/10:30pm 20.4 SW 6 8 1017.7 - 0.0 - Partly cloudy 10 - - - -
17/10:00pm 19.7 WSW 4 6 1017.9 - 0.0 - Cloudy 10 - - - -
17/09:30pm 19.0 WSW 4 6 1017.9 - 0.0 - Partly cloudy 10 - - - -
17/09:00pm 19.0 WSW 5 7 1017.6 - 0.0 - Cloudy 10 - - - -
17/08:30pm 18.9 SW 5 6 1017.5 - 0.0 - Partly cloudy 10 - - - -
17/08:00pm 18.3 WSW 6 7 1017.3 - 0.0 - - 10 - - - -
17/07:30pm 19.0 SW 6 7 1017.0 - 0.0 - - 10 - - - -
17/07:00pm 18.9 WSW 6 6 1016.7 - 0.0 - - 10 - - - -
17/06:30pm 20.1 SSW 3 4 1016.4 - 0.0 - - 10 - - - -
17/06:00pm 20.4 S 6 8 1015.9 - 0.0 - - 10 - - - -
17/05:30pm 21.6 SSE 8 11 1015.8 - 0.0 - - 10 - - - -
17/05:00pm 22.2 SSE 10 14 1015.6 - 0.0 - - 10 - - - -
17/04:30pm 23.2 SE 12 16 1015.2 - 0.0 - - 10 - - - -
17/04:00pm 24.0 SE 12 16 1015.0 - 0.0 - - 10 - - - -
17/03:30pm 24.7 SE 13 17 1014.8 - 0.0 - - 10 - - - -
17/03:00pm 25.6 SSE 10 13 1014.8 - 0.0 - - 10 - - - -
17/02:30pm 26.5 SSE 11 14 1014.9 - 0.0 - - 10 - - - -
17/02:00pm 26.3 WSW 7 10 1015.3 - 0.0 - Partly cloudy 10 - - - -
17/01:30pm 26.6 SSE 11 15 1015.6 - 0.0 - - 10 - - - -
17/01:00pm 26.0 S 8 13 1015.9 - 0.0 - - 10 - - - -
17/12:30pm 25.8 SW 9 14 1016.2 - 0.0 - - 10 - - - -
17/12:00pm 25.5 S 9 13 1016.5 - 0.0 - - 10 - - - -
17/11:30am 25.0 SW 7 11 1017.1 - 0.0 - - 10 - - - -
17/11:00am 24.6 SSW 9 12 1017.7 - 0.0 - - 10 - - - -
17/10:30am 24.3 SW 9 15 1018.1 - 0.0 - - 10 - - - -
17/10:00am 24.1 SW 10 17 1018.1 - 0.0 - - 10 - - - -
17/09:30am 22.9 SSW 10 16 1018.2 - 0.0 - - 10 - - - -
17/09:00am 22.9 SSW 10 16 1018.1 - 0.2 - - 10 - - - -
17/08:30am 22.3 SW 7 11 1018.4 - 0.2 - - 10 - - - -
17/08:00am 21.5 SSW 7 9 1018.3 - 0.2 - - 10 - - - -
17/07:30am 20.5 SW 7 10 1018.0 - 0.2 - - 10 - - - -
17/07:00am 19.5 SSW 6 9 1017.8 - 0.2 - - 10 - - - -
17/06:30am 18.4 SSW 5 7 1017.4 - 0.2 - Partly cloudy 10 - - - -
17/06:00am 18.7 SSW 10 15 1016.9 - 0.2 - Mostly clear 10 - - - -
17/05:30am 17.4 SW 5 7 1016.8 - 0.2 - - 10 - - - -
17/05:00am 17.2 WSW 4 6 1016.5 - 0.2 - - 10 - - - -
17/04:30am 17.7 WSW 6 7 1016.3 - 0.2 - - 10 - - - -
17/04:00am 18.6 SW 8 11 1016.1 - 0.2 - - 10 - - - -
17/03:30am 19.2 SSW 9 13 1015.9 - 0.2 - - 10 - - - -
17/03:00am 18.6 SSW 7 11 1015.9 - 0.2 - - 10 - - - -
17/02:30am 18.9 SSW 7 11 1015.9 - 0.2 - - 10 - - - -
17/02:00am 19.2 SW 9 13 1015.8 - 0.2 - - 10 - - - -
17/01:30am 19.4 SSW 9 13 1015.8 - 0.2 - - 10 - - - -
17/01:00am 19.8 SSW 10 15 1016.2 - 0.2 - - 10 - - - -
17/12:30am 19.9 SSW 9 13 1016.3 - 0.2 - - 10 - - - -
17/12:00am 20.0 SSW 10 15 1016.3 - 0.2 - - 10 - - - -
 
Date/Time
EST
Temp

°C
Wind Pressure Rain
since 9am
mm
Weather Cloud Vis
km
Sea
Height
m
Swell
Dir
 
Speed
knots
Gust
knots
hPa Trend Height
m
Period
s
Dir
16/11:30pm 20.4 SSW 12 17 1016.5 - 0.2 - - 10 - - - -
16/11:00pm 20.6 SSW 11 16 1016.6 - 0.2 - - 10 - - - -
16/10:30pm 20.3 SSW 10 14 1016.7 - 0.2 - - 10 - - - -
16/10:00pm 20.3 S 10 14 1016.7 - 0.2 - - 10 - - - -
16/09:30pm 20.3 SSW 7 12 1016.7 - 0.2 - - 10 - - - -
16/09:00pm 20.3 SW 7 11 1016.5 - 0.2 - - 10 - - - -
16/08:30pm 19.9 SSW 6 9 1016.3 - 0.2 - - 10 - - - -
16/08:00pm 20.2 SSW 6 10 1016.2 - 0.2 - - 10 - - - -
16/07:30pm 20.2 S 7 11 1015.8 - 0.2 - - 10 - - - -
16/07:00pm 20.5 S 10 14 1015.5 - 0.2 - - 10 - - - -
16/06:30pm 21.0 S 11 15 1015.1 - 0.2 - - 10 - - - -
16/06:00pm 21.1 S 11 15 1014.7 - 0.2 - - 10 - - - -
16/05:30pm 21.5 SSE 10 15 1014.7 - 0.2 - - 10 - - - -
16/05:00pm 22.1 SSE 12 18 1014.6 - 0.2 - - 10 - - - -
16/04:30pm 23.2 SE 14 19 1014.3 - 0.2 - - 10 - - - -
16/04:00pm 24.7 S 8 11 1013.9 - 0.2 - - 10 - - - -
16/03:30pm 24.9 SSE 10 14 1013.8 - 0.2 - Partly cloudy 10 - - - -
16/03:00pm 25.3 S 9 12 1013.8 - 0.2 - Mostly clear 10 - - - -
16/02:30pm 25.6 S 10 16 1014.0 - 0.2 - Partly cloudy 10 - - - -
16/02:00pm 25.6 SW 12 17 1014.2 - 0.2 - Partly cloudy 10 - - - -
16/01:30pm 24.6 S 11 16 1014.3 - 0.2 - Partly cloudy 10 - - - -
16/01:00pm 25.6 SW 9 16 1014.4 - 0.2 - - 10 - - - -
16/12:30pm 24.9 SSW 11 14 1014.8 - 0.2 - - 10 - - - -
16/12:00pm 25.1 SSW 10 15 1015.1 - 0.2 - - 10 - - - -
16/11:30am 24.5 SSW 9 16 1015.6 - 0.2 - - 10 - - - -
16/11:00am 24.1 SSW 10 14 1016.1 - 0.2 - - 10 - - - -
16/10:30am 23.6 SSW 9 12 1016.5 - 0.2 - Partly cloudy 10 - - - -
16/10:00am 22.8 S 12 16 1016.7 - 0.0 - - 10 - - - -
16/09:30am 22.4 SSW 9 15 1016.8 - 0.0 - - 10 - - - -
16/09:00am 21.9 SSW 9 11 1016.6 - 0.2 - - 10 - - - -
16/08:30am 21.2 SW 9 14 1016.7 - 0.2 - - 10 - - - -
16/08:00am 20.3 SSW 9 13 1016.6 - 0.2 - - 10 - - - -
16/07:30am 19.6 SSW 11 16 1016.3 - 0.2 - - 10 - - - -
16/07:00am 19.1 SSW 11 15 1015.8 - 0.2 - - 10 - - - -

Other Formats:

Comma delimited format used in spreadsheet applications
http://www.bom.gov.au/fwo/IDN60701/IDN60701.94592.axf

JavaScript Object Notation format (JSON) in row-major order
http://www.bom.gov.au/fwo/IDN60701/IDN60701.94592.json